Time;durP1;ratioP1;P1;durP2;ratioP2;P2;SDS_P1;SDS_P2;PMS_P1;PMS_P2;Temp;Humidity;BMP_temperature;BMP_pressure;BME280_temperature;BME280_humidity;BME280_pressure;Samples;Min_cycle;Max_cycle;Signal;HPM_P1;HPM_P2
2023/06/03 00:01:47;;;;;;;7.85;3.00;;;18.40;86.30;;;;;;5014682;28;20059;-76
2023/06/03 00:04:16;;;;;;;5.75;3.00;;;18.40;85.90;;;;;;5017816;28;20041;-75
2023/06/03 00:06:43;;;;;;;5.00;3.03;;;18.30;85.60;;;;;;4996300;28;20053;-75
2023/06/03 00:09:11;;;;;;;9.05;2.90;;;18.40;85.70;;;;;;5015245;28;22308;-75
2023/06/03 00:11:38;;;;;;;6.38;2.88;;;18.30;85.40;;;;;;5020891;28;20048;-75
2023/06/03 00:14:06;;;;;;;5.85;2.85;;;18.30;84.90;;;;;;5021972;28;20047;-76
2023/06/03 00:16:33;;;;;;;7.03;2.85;;;18.20;84.50;;;;;;4996471;28;20064;-75
2023/06/03 00:19:00;;;;;;;6.80;2.67;;;18.10;84.10;;;;;;4995772;28;20063;-75
2023/06/03 00:21:27;;;;;;;4.90;2.97;;;17.90;83.90;;;;;;5010596;28;20055;-75
2023/06/03 00:23:54;;;;;;;6.53;3.40;;;17.90;83.90;;;;;;5009425;28;20049;-75
2023/06/03 00:26:22;;;;;;;8.48;2.80;;;17.90;84.20;;;;;;5020574;28;20052;-75
2023/06/03 00:28:55;;;;;;;5.10;2.85;;;18.00;83.90;;;;;;5014608;28;20198;-75
2023/06/03 00:31:23;;;;;;;5.30;3.03;;;18.00;84.80;;;;;;4996477;28;20779;-75
2023/06/03 00:33:50;;;;;;;4.90;2.40;;;18.10;83.60;;;;;;5019937;28;20056;-75
2023/06/03 00:36:18;;;;;;;4.35;2.40;;;18.20;83.70;;;;;;5019603;28;20139;-75
2023/06/03 00:38:45;;;;;;;4.70;2.90;;;18.10;82.90;;;;;;5001834;28;20052;-76
2023/06/03 00:41:12;;;;;;;8.35;3.15;;;17.90;82.90;;;;;;5006495;28;20258;-75
2023/06/03 00:43:39;;;;;;;5.80;2.85;;;17.90;83.70;;;;;;5010299;28;20177;-75
2023/06/03 00:46:09;;;;;;;5.93;2.83;;;17.80;83.60;;;;;;4989419;28;20044;-75
2023/06/03 00:48:38;;;;;;;7.72;2.88;;;17.80;83.90;;;;;;5019568;28;20641;-75
2023/06/03 00:51:06;;;;;;;5.28;2.83;;;17.80;83.80;;;;;;5015454;28;20048;-75
2023/06/03 00:53:35;;;;;;;8.70;3.75;;;17.80;83.50;;;;;;4990083;28;20165;-75
2023/06/03 00:56:03;;;;;;;7.07;2.50;;;17.80;84.50;;;;;;5005411;28;20052;-75
2023/06/03 00:58:31;;;;;;;5.20;2.65;;;17.80;84.30;;;;;;5006793;28;20047;-75
2023/06/03 01:00:59;;;;;;;8.75;2.42;;;17.80;84.50;;;;;;5002721;28;20698;-75
2023/06/03 01:03:27;;;;;;;6.22;2.58;;;17.80;84.60;;;;;;4998971;28;20044;-75
2023/06/03 01:06:14;;;;;;;5.13;2.72;;;17.80;84.20;;;;;;4992905;28;20041;-75
2023/06/03 01:08:56;;;;;;;5.82;2.88;;;17.80;84.10;;;;;;5019374;28;22537;-75
2023/06/03 01:11:58;;;;;;;8.63;2.53;;;17.70;83.30;;;;;;4999684;28;20292;-75
2023/06/03 01:14:36;;;;;;;10.98;2.55;;;17.80;83.70;;;;;;5019634;28;20949;-75
2023/06/03 01:17:12;;;;;;;8.90;2.60;;;17.70;83.80;;;;;;5012548;28;20421;-75
2023/06/03 01:19:49;;;;;;;7.20;3.08;;;17.70;85.60;;;;;;5011474;28;20090;-75
2023/06/03 01:22:18;;;;;;;8.02;3.13;;;17.70;85.60;;;;;;5019801;28;20530;-75
2023/06/03 01:24:48;;;;;;;17.88;3.60;;;17.70;85.10;;;;;;5004379;28;20059;-75
2023/06/03 01:27:15;;;;;;;8.38;2.70;;;17.60;85.30;;;;;;5030582;28;20542;-75
2023/06/03 01:29:43;;;;;;;7.57;2.92;;;17.60;85.50;;;;;;5008799;28;20053;-75
2023/06/03 01:32:15;;;;;;;7.63;3.10;;;17.60;85.50;;;;;;4996163;28;20045;-75
2023/06/03 01:34:43;;;;;;;7.88;3.00;;;17.50;85.70;;;;;;5026925;28;20040;-75
2023/06/03 01:37:11;;;;;;;9.85;2.90;;;17.40;85.40;;;;;;5009129;28;20060;-75
2023/06/03 01:39:40;;;;;;;9.07;3.45;;;17.40;86.20;;;;;;5003726;28;22978;-75
2023/06/03 01:42:11;;;;;;;6.35;2.45;;;17.40;86.00;;;;;;5006224;28;20055;-75
2023/06/03 01:44:41;;;;;;;6.20;2.50;;;17.40;85.70;;;;;;5015678;28;20060;-75
2023/06/03 01:47:09;;;;;;;6.18;2.13;;;17.30;86.10;;;;;;5025478;28;20052;-75
2023/06/03 01:49:37;;;;;;;5.45;2.53;;;17.30;85.30;;;;;;5009434;28;20884;-75
2023/06/03 01:52:05;;;;;;;4.60;2.60;;;17.30;86.40;;;;;;5017973;28;20045;-75
2023/06/03 01:54:33;;;;;;;5.80;2.88;;;17.30;86.30;;;;;;5031845;28;22280;-76
2023/06/03 01:57:00;;;;;;;5.82;3.03;;;17.30;86.50;;;;;;5001469;28;20048;-75
2023/06/03 01:59:27;;;;;;;7.18;3.40;;;17.30;86.80;;;;;;5030995;28;20565;-75
2023/06/03 02:01:57;;;;;;;7.63;3.10;;;17.20;86.40;;;;;;5006780;28;20056;-75
2023/06/03 02:04:24;;;;;;;7.53;3.00;;;17.20;86.60;;;;;;5009690;28;20041;-75
2023/06/03 02:06:53;;;;;;;5.28;2.63;;;17.10;87.30;;;;;;5004552;28;20085;-75
2023/06/03 02:09:30;;;;;;;6.25;3.17;;;17.10;86.80;;;;;;5007884;28;20048;-75
2023/06/03 02:11:59;;;;;;;7.43;3.40;;;17.00;87.00;;;;;;5030367;28;20052;-75
2023/06/03 02:14:30;;;;;;;8.43;3.35;;;17.00;88.50;;;;;;5018984;28;20095;-75
2023/06/03 02:16:57;;;;;;;7.70;2.80;;;17.00;88.20;;;;;;5010647;28;20057;-75
2023/06/03 02:19:26;;;;;;;10.52;3.25;;;17.00;89.20;;;;;;4998848;28;20202;-75
2023/06/03 02:21:57;;;;;;;10.68;2.70;;;16.90;88.50;;;;;;5029128;28;20436;-75
2023/06/03 02:24:28;;;;;;;8.27;2.97;;;16.90;88.00;;;;;;5012831;28;20048;-75
2023/06/03 02:27:00;;;;;;;7.95;3.17;;;16.80;88.50;;;;;;5006051;28;20172;-75
2023/06/03 02:29:29;;;;;;;7.60;3.17;;;16.80;88.50;;;;;;4998395;28;20454;-75
2023/06/03 02:31:58;;;;;;;8.60;3.10;;;16.80;89.20;;;;;;5019576;28;20124;-75
2023/06/03 02:34:26;;;;;;;8.23;3.55;;;16.80;88.70;;;;;;5014437;28;20067;-75
2023/06/03 02:36:53;;;;;;;10.52;3.20;;;16.70;89.30;;;;;;5001924;28;20053;-75
2023/06/03 02:39:21;;;;;;;5.82;3.30;;;16.70;90.00;;;;;;5005337;28;20049;-75
2023/06/03 02:41:49;;;;;;;6.72;3.58;;;16.70;90.40;;;;;;5001121;28;20549;-75
2023/06/03 02:44:17;;;;;;;5.78;2.92;;;16.70;90.20;;;;;;5000776;28;20547;-75
2023/06/03 02:46:45;;;;;;;8.68;3.25;;;16.60;90.20;;;;;;5013552;28;22525;-75
2023/06/03 02:49:14;;;;;;;5.63;2.90;;;16.70;89.80;;;;;;5022424;28;20060;-75
2023/06/03 02:51:41;;;;;;;8.35;2.85;;;16.60;89.50;;;;;;5013834;28;20036;-75
2023/06/03 02:54:08;;;;;;;6.68;3.10;;;16.50;89.10;;;;;;5006380;28;20049;-76
2023/06/03 02:56:36;;;;;;;11.32;3.08;;;16.30;89.30;;;;;;5018104;28;20091;-75
2023/06/03 02:59:03;;;;;;;5.90;3.38;;;16.40;89.80;;;;;;5033296;28;20041;-75
2023/06/03 03:01:31;;;;;;;11.77;3.47;;;16.50;90.30;;;;;;5015872;28;20045;-75
2023/06/03 03:03:59;;;;;;;6.20;3.40;;;16.40;90.60;;;;;;5028618;28;20041;-75
2023/06/03 03:06:26;;;;;;;5.38;2.75;;;16.40;90.40;;;;;;5013461;28;20045;-75
2023/06/03 03:08:54;;;;;;;7.40;3.20;;;16.40;90.20;;;;;;5022315;28;20043;-75
2023/06/03 03:11:31;;;;;;;9.38;2.80;;;16.40;90.30;;;;;;5006048;28;20497;-75
2023/06/03 03:13:58;;;;;;;8.38;3.25;;;16.40;90.10;;;;;;5014307;28;20048;-75
2023/06/03 03:16:26;;;;;;;8.75;2.80;;;16.40;90.20;;;;;;5001121;28;20045;-75
2023/06/03 03:18:55;;;;;;;8.80;2.88;;;16.40;89.50;;;;;;5048580;28;20271;-75
2023/06/03 03:21:22;;;;;;;6.78;3.92;;;16.40;89.00;;;;;;5024529;28;22384;-75
2023/06/03 03:23:50;;;;;;;6.47;2.75;;;16.40;90.20;;;;;;5029939;28;20056;-75
2023/06/03 03:26:25;;;;;;;10.18;2.97;;;16.40;90.30;;;;;;5046332;28;20531;-75
2023/06/03 03:28:53;;;;;;;6.05;2.70;;;16.40;90.60;;;;;;4998789;28;20044;-75
2023/06/03 03:31:22;;;;;;;5.80;3.42;;;16.40;90.40;;;;;;5010575;28;20649;-75
2023/06/03 03:33:50;;;;;;;6.55;2.53;;;16.40;90.00;;;;;;5014844;28;20053;-75
2023/06/03 03:36:22;;;;;;;7.88;2.95;;;16.50;88.60;;;;;;5008531;28;20076;-75
2023/06/03 03:39:05;;;;;;;3.47;2.35;;;16.50;90.00;;;;;;5018968;28;20139;-75
2023/06/03 03:41:43;;;;;;;9.85;3.25;;;16.50;90.40;;;;;;5000113;28;20059;-75
2023/06/03 03:44:12;;;;;;;5.60;2.90;;;16.50;90.00;;;;;;5008961;28;20045;-75
2023/06/03 03:46:48;;;;;;;8.90;3.28;;;16.50;90.60;;;;;;5000971;28;20129;-75
2023/06/03 03:49:26;;;;;;;8.32;3.03;;;16.50;90.20;;;;;;5016035;28;20063;-75
2023/06/03 03:51:57;;;;;;;8.30;2.85;;;16.50;90.30;;;;;;5039330;28;20053;-75
2023/06/03 03:54:25;;;;;;;5.28;2.90;;;16.50;89.00;;;;;;5022298;28;20524;-75
2023/06/03 03:56:56;;;;;;;4.97;2.60;;;16.60;90.80;;;;;;5016641;28;20045;-75
2023/06/03 03:59:27;;;;;;;4.75;2.88;;;16.60;90.40;;;;;;5020062;28;20099;-75
2023/06/03 04:01:57;;;;;;;6.63;2.78;;;16.70;90.00;;;;;;5010353;28;20076;-75
2023/06/03 04:04:40;;;;;;;7.93;2.92;;;16.70;89.30;;;;;;5018167;28;20126;-75
2023/06/03 04:07:11;;;;;;;7.35;3.05;;;16.70;87.80;;;;;;5005319;28;20601;-75
2023/06/03 04:09:39;;;;;;;4.00;2.03;;;16.70;87.70;;;;;;5022644;28;20249;-75
2023/06/03 04:12:16;;;;;;;6.85;2.83;;;16.60;88.30;;;;;;5014909;28;22486;-75
2023/06/03 04:14:50;;;;;;;5.97;2.83;;;16.70;87.20;;;;;;5024480;28;21508;-75
2023/06/03 04:17:21;;;;;;;4.03;2.20;;;16.80;88.00;;;;;;5011906;28;20056;-75
2023/06/03 04:19:49;;;;;;;5.50;2.63;;;16.80;86.90;;;;;;5021563;28;22454;-75
2023/06/03 04:22:21;;;;;;;5.15;2.05;;;16.80;85.70;;;;;;4996045;28;20133;-76
2023/06/03 04:24:57;;;;;;;5.07;2.28;;;16.90;86.40;;;;;;5026097;28;20045;-76
2023/06/03 04:27:46;;;;;;;4.97;1.95;;;17.00;87.80;;;;;;5004521;28;20152;-75
2023/06/03 04:30:15;;;;;;;5.78;1.70;;;17.10;86.70;;;;;;5018884;28;20056;-75
2023/06/03 04:32:42;;;;;;;9.93;2.40;;;17.20;87.60;;;;;;5007206;28;22792;-75
2023/06/03 04:35:10;;;;;;;5.43;2.03;;;17.20;86.30;;;;;;5007401;28;20053;-75
2023/06/03 04:37:40;;;;;;;6.20;2.30;;;17.20;86.60;;;;;;5015058;28;20125;-75
2023/06/03 04:40:11;;;;;;;4.93;2.25;;;17.30;84.40;;;;;;5015889;28;20831;-75
2023/06/03 04:42:41;;;;;;;7.32;2.28;;;17.30;84.30;;;;;;5038572;28;20926;-75
2023/06/03 04:45:09;;;;;;;6.25;1.77;;;17.30;84.30;;;;;;5027371;28;20049;-75
2023/06/03 04:47:41;;;;;;;3.78;1.83;;;17.30;84.60;;;;;;4990396;28;20095;-75
2023/06/03 04:50:10;;;;;;;5.22;1.90;;;17.30;83.10;;;;;;4998618;28;20168;-75
2023/06/03 04:52:38;;;;;;;4.65;2.13;;;17.40;83.50;;;;;;5027185;28;20209;-75
2023/06/03 04:55:09;;;;;;;6.93;2.08;;;17.50;83.50;;;;;;5020606;28;20052;-76
2023/06/03 04:57:37;;;;;;;7.65;2.20;;;17.50;83.20;;;;;;5023779;28;20163;-75
2023/06/03 05:00:09;;;;;;;5.35;2.05;;;17.60;83.70;;;;;;5024590;28;20884;-76
2023/06/03 05:02:38;;;;;;;4.60;1.80;;;17.70;82.10;;;;;;5015930;28;20420;-76
2023/06/03 05:05:06;;;;;;;3.92;1.70;;;17.80;82.20;;;;;;5037092;28;20032;-75
2023/06/03 05:07:35;;;;;;;3.83;1.67;;;17.70;81.90;;;;;;5017966;28;20554;-75
2023/06/03 05:10:03;;;;;;;5.40;1.58;;;17.80;82.00;;;;;;4995430;28;20731;-75
2023/06/03 05:12:31;;;;;;;3.63;1.70;;;18.00;82.40;;;;;;5009948;28;20047;-75
2023/06/03 05:14:58;;;;;;;3.13;1.25;;;18.10;80.90;;;;;;5026487;28;20071;-76
2023/06/03 05:17:26;;;;;;;2.40;1.20;;;18.30;81.00;;;;;;5013978;28;20055;-76
2023/06/03 05:19:53;;;;;;;2.42;1.10;;;18.40;80.40;;;;;;4995901;28;20126;-75
2023/06/03 05:22:21;;;;;;;3.95;1.23;;;18.40;80.10;;;;;;5011374;28;20107;-76
2023/06/03 05:24:48;;;;;;;4.00;1.33;;;18.50;80.10;;;;;;5002916;28;20075;-75
2023/06/03 05:27:16;;;;;;;2.90;1.30;;;18.60;79.60;;;;;;5008215;28;20036;-76
2023/06/03 05:29:46;;;;;;;5.10;1.70;;;18.70;79.50;;;;;;5018086;28;20152;-76
2023/06/03 05:32:13;;;;;;;3.22;1.30;;;18.70;77.70;;;;;;5028118;28;20055;-76
2023/06/03 05:34:40;;;;;;;3.33;1.77;;;18.60;78.70;;;;;;5013862;28;20423;-76
2023/06/03 05:37:07;;;;;;;4.65;2.00;;;18.90;79.10;;;;;;5017517;28;20182;-76
2023/06/03 05:39:35;;;;;;;4.15;1.40;;;19.10;78.80;;;;;;5009450;28;20048;-75
2023/06/03 05:42:06;;;;;;;6.43;2.20;;;18.90;79.00;;;;;;5022111;28;20126;-75
2023/06/03 05:44:33;;;;;;;3.50;1.45;;;19.10;78.30;;;;;;5013504;28;20122;-75
2023/06/03 05:47:01;;;;;;;4.00;1.65;;;19.20;77.20;;;;;;5009629;28;20411;-75
2023/06/03 05:49:28;;;;;;;3.00;1.48;;;19.40;78.50;;;;;;5017853;28;20044;-75
2023/06/03 05:51:56;;;;;;;4.25;1.63;;;19.20;76.00;;;;;;5013103;28;22298;-77
2023/06/03 05:54:28;;;;;;;3.47;1.92;;;19.20;75.80;;;;;;5009915;28;20426;-75
2023/06/03 05:56:57;;;;;;;4.32;1.80;;;19.30;75.50;;;;;;5003544;28;20053;-76
2023/06/03 05:59:25;;;;;;;4.82;1.30;;;19.50;74.80;;;;;;5003257;28;20777;-76
2023/06/03 06:01:52;;;;;;;3.67;1.23;;;19.60;75.00;;;;;;5001399;28;20337;-75
2023/06/03 06:04:20;;;;;;;4.47;1.73;;;19.70;74.90;;;;;;5007064;28;20052;-75
2023/06/03 06:06:48;;;;;;;2.67;0.98;;;19.20;74.20;;;;;;5008801;28;20051;-75
2023/06/03 06:09:15;;;;;;;3.45;1.33;;;18.70;75.70;;;;;;5015180;28;20091;-76
2023/06/03 06:11:42;;;;;;;4.30;1.42;;;18.90;76.20;;;;;;5004157;28;20041;-75
2023/06/03 06:14:11;;;;;;;4.07;1.45;;;19.30;76.40;;;;;;5011528;28;20766;-76
2023/06/03 06:16:39;;;;;;;4.00;1.15;;;19.60;75.90;;;;;;5020103;28;20697;-76
2023/06/03 06:19:06;;;;;;;3.33;1.20;;;19.70;74.70;;;;;;5011765;28;20566;-75
2023/06/03 06:21:34;;;;;;;7.57;1.60;;;19.90;73.90;;;;;;5010788;28;20096;-75
2023/06/03 06:24:01;;;;;;;3.80;1.27;;;20.00;73.50;;;;;;4997343;28;20072;-76
2023/06/03 06:26:29;;;;;;;3.60;1.60;;;20.00;73.40;;;;;;5027995;28;20041;-76
2023/06/03 06:28:57;;;;;;;3.53;1.13;;;20.10;72.90;;;;;;5004552;28;20056;-75
2023/06/03 06:31:25;;;;;;;2.65;1.30;;;20.30;73.10;;;;;;4999540;28;20049;-75
2023/06/03 06:33:54;;;;;;;3.80;1.60;;;20.50;73.30;;;;;;5015087;28;20107;-77
2023/06/03 06:36:32;;;;;;;;;;;20.00;71.90;;;;;;5044761;28;20055;-76
2023/06/03 06:39:20;;;;;;;5.35;1.40;;;20.20;72.40;;;;;;5025874;28;19935;-77
2023/06/03 06:41:48;;;;;;;2.88;1.50;;;20.40;72.50;;;;;;5028378;28;22360;-76
2023/06/03 06:44:16;;;;;;;3.00;1.35;;;20.60;71.90;;;;;;5037579;28;20531;-76
2023/06/03 06:46:43;;;;;;;3.65;1.35;;;20.70;72.70;;;;;;5004831;28;20206;-76
2023/06/03 06:49:11;;;;;;;4.03;1.20;;;20.50;70.90;;;;;;5027950;28;20045;-75
2023/06/03 06:51:39;;;;;;;3.30;1.23;;;20.50;71.10;;;;;;5037899;28;20157;-76
2023/06/03 06:54:07;;;;;;;2.53;1.33;;;20.50;70.30;;;;;;5013904;28;20075;-76
2023/06/03 06:56:35;;;;;;;3.65;1.10;;;20.50;70.50;;;;;;4996411;28;20816;-76
2023/06/03 06:59:02;;;;;;;2.47;1.00;;;20.60;69.90;;;;;;5032457;28;20093;-75
2023/06/03 07:01:29;;;;;;;2.17;1.02;;;20.90;71.40;;;;;;5012849;28;20578;-75
2023/06/03 07:03:57;;;;;;;2.92;1.10;;;20.90;70.50;;;;;;5026597;28;20075;-76
2023/06/03 07:06:25;;;;;;;2.60;1.50;;;20.90;70.40;;;;;;5005281;28;20587;-75
2023/06/03 07:08:57;;;;;;;2.67;1.60;;;20.80;71.00;;;;;;5035546;28;20052;-75
2023/06/03 07:11:26;;;;;;;4.45;2.00;;;20.70;70.20;;;;;;5018102;28;20052;-76
2023/06/03 07:13:58;;;;;;;3.25;1.30;;;20.70;70.80;;;;;;5005868;28;20041;-75
2023/06/03 07:16:26;;;;;;;3.83;1.80;;;21.00;72.70;;;;;;5024755;28;20048;-76
2023/06/03 07:18:53;;;;;;;2.55;1.27;;;21.10;71.20;;;;;;5012552;28;20057;-75
2023/06/03 07:21:32;;;;;;;3.50;1.23;;;21.20;71.90;;;;;;5026542;28;20084;-76
2023/06/03 07:24:01;;;;;;;7.93;2.08;;;21.30;71.60;;;;;;5030526;28;20083;-76
2023/06/03 07:26:32;;;;;;;3.38;1.60;;;21.50;71.50;;;;;;5020105;28;20741;-76
2023/06/03 07:29:00;;;;;;;3.80;1.63;;;21.50;70.40;;;;;;5008476;28;20535;-76
2023/06/03 07:31:35;;;;;;;4.68;2.13;;;21.40;70.20;;;;;;5012016;28;20037;-76
2023/06/03 07:34:02;;;;;;;3.35;1.10;;;21.40;72.90;;;;;;5007695;28;20056;-76
2023/06/03 07:36:34;;;;;;;2.80;1.70;;;21.50;71.20;;;;;;5018695;28;22450;-76
2023/06/03 07:39:06;;;;;;;5.10;1.98;;;21.60;70.30;;;;;;5027814;28;20063;-76
2023/06/03 07:41:51;;;;;;;2.60;1.58;;;21.20;71.70;;;;;;5008389;28;20670;-76
2023/06/03 07:44:44;;;;;;;9.15;1.90;;;20.70;71.40;;;;;;5020252;28;20045;-76
2023/06/03 07:47:13;;;;;;;6.18;1.73;;;20.90;72.40;;;;;;5010304;28;20564;-77
2023/06/03 07:49:48;;;;;;;7.82;2.47;;;20.90;71.90;;;;;;5020770;28;20190;-76
2023/06/03 07:52:20;;;;;;;4.18;2.28;;;20.90;72.40;;;;;;5011329;28;20052;-76
2023/06/03 07:54:48;;;;;;;8.23;2.28;;;21.20;72.20;;;;;;5016090;28;20056;-75
2023/06/03 07:57:16;;;;;;;5.07;2.00;;;21.20;71.80;;;;;;5014147;28;20165;-75
2023/06/03 07:59:52;;;;;;;5.25;3.10;;;20.80;72.40;;;;;;5023553;28;20036;-77
2023/06/03 08:02:20;;;;;;;3.30;2.08;;;20.50;73.20;;;;;;5018879;28;20088;-77
2023/06/03 08:04:48;;;;;;;4.00;1.85;;;20.50;72.80;;;;;;5017501;28;22302;-77
2023/06/03 08:07:15;;;;;;;2.70;1.73;;;20.80;72.60;;;;;;5018533;28;20523;-77
2023/06/03 08:09:43;;;;;;;4.47;1.80;;;21.10;70.80;;;;;;5022266;28;20036;-77
2023/06/03 08:12:10;;;;;;;5.00;2.15;;;21.60;70.60;;;;;;5013887;28;20041;-78
2023/06/03 08:14:39;;;;;;;6.65;2.20;;;21.90;69.90;;;;;;4997109;28;20428;-78
2023/06/03 08:17:12;;;;;;;5.07;1.48;;;21.50;68.70;;;;;;5009500;28;20067;-76
2023/06/03 08:19:44;;;;;;;3.30;1.77;;;21.20;69.80;;;;;;5013037;28;20049;-77
2023/06/03 08:22:31;;;;;;;2.65;1.30;;;21.10;68.60;;;;;;5014893;28;20345;-77
2023/06/03 08:24:58;;;;;;;2.90;1.27;;;21.40;69.60;;;;;;5005255;28;20145;-76
2023/06/03 08:27:25;;;;;;;4.55;1.80;;;21.30;69.60;;;;;;5021094;28;20661;-77
2023/06/03 08:29:52;;;;;;;5.32;2.65;;;21.20;70.20;;;;;;5017109;28;20050;-77
2023/06/03 08:32:19;;;;;;;3.72;2.25;;;21.10;71.20;;;;;;5033925;28;20491;-77
2023/06/03 08:34:47;;;;;;;4.88;2.67;;;20.90;71.20;;;;;;5034154;28;20253;-77
2023/06/03 08:37:14;;;;;;;5.97;1.88;;;20.80;72.10;;;;;;5021522;28;20111;-77
2023/06/03 08:39:42;;;;;;;4.60;1.67;;;20.60;72.60;;;;;;5014493;28;20048;-77
2023/06/03 08:42:12;;;;;;;6.53;2.63;;;20.70;71.60;;;;;;5029508;28;20183;-77
2023/06/03 08:45:10;;;;;;;2.72;1.30;;;20.70;69.90;;;;;;5001476;28;20063;-77
2023/06/03 08:48:02;;;;;;;3.88;1.20;;;20.50;67.90;;;;;;4997351;28;20060;-76
2023/06/03 08:50:33;;;;;;;4.38;1.75;;;21.00;69.00;;;;;;5012813;28;20045;-76
2023/06/03 08:53:08;;;;;;;4.45;1.80;;;21.60;66.70;;;;;;5020499;28;20060;-77
2023/06/03 08:55:37;;;;;;;4.80;1.77;;;21.90;66.20;;;;;;5010639;28;20852;-76
2023/06/03 08:58:10;;;;;;;4.82;2.30;;;21.40;66.80;;;;;;5010830;28;20041;-75
2023/06/03 09:00:38;;;;;;;6.55;2.22;;;21.20;68.90;;;;;;5023417;28;20588;-76
2023/06/03 09:03:06;;;;;;;3.70;1.83;;;21.20;69.90;;;;;;5025816;28;20157;-75
2023/06/03 09:05:34;;;;;;;3.95;2.28;;;21.50;67.70;;;;;;5009956;28;20049;-76
2023/06/03 09:08:02;;;;;;;3.13;1.58;;;21.50;67.50;;;;;;5013695;28;20040;-76
2023/06/03 09:10:31;;;;;;;3.90;2.30;;;21.50;66.30;;;;;;5024466;28;20402;-78
2023/06/03 09:13:01;;;;;;;2.85;1.80;;;21.70;66.60;;;;;;5043116;28;20180;-77
2023/06/03 09:15:30;;;;;;;2.72;1.73;;;21.70;67.30;;;;;;5010748;28;20052;-75
2023/06/03 09:17:58;;;;;;;3.70;2.25;;;21.70;67.80;;;;;;5024417;28;20063;-76
2023/06/03 09:20:25;;;;;;;7.28;2.58;;;21.90;68.10;;;;;;5013122;28;20169;-77
2023/06/03 09:22:53;;;;;;;3.75;2.60;;;21.90;66.50;;;;;;5012013;28;20095;-76
2023/06/03 09:25:21;;;;;;;4.82;2.03;;;22.00;67.40;;;;;;5018492;28;20175;-76
2023/06/03 09:27:48;;;;;;;3.35;1.98;;;22.00;66.60;;;;;;5004360;28;20528;-77
2023/06/03 09:30:16;;;;;;;6.70;2.60;;;22.20;66.70;;;;;;5019261;28;20059;-77
2023/06/03 09:32:43;;;;;;;6.07;2.30;;;22.30;66.50;;;;;;5006136;28;20069;-77
2023/06/03 09:35:10;;;;;;;5.65;2.63;;;21.90;66.90;;;;;;5022553;28;20079;-77
2023/06/03 09:37:37;;;;;;;4.55;2.53;;;21.30;67.50;;;;;;5013895;28;21162;-76
2023/06/03 09:40:23;;;;;;;3.78;1.95;;;21.40;69.10;;;;;;5000580;28;20049;-76
2023/06/03 09:42:50;;;;;;;4.20;2.63;;;21.40;69.20;;;;;;5002820;28;20057;-77
2023/06/03 09:45:30;;;;;;;4.25;2.50;;;21.40;69.20;;;;;;5017625;28;20088;-77
2023/06/03 09:48:01;;;;;;;6.22;3.00;;;21.20;69.00;;;;;;5015595;28;20055;-77
2023/06/03 09:50:32;;;;;;;8.30;2.50;;;21.00;70.00;;;;;;5020623;28;20052;-77
2023/06/03 09:53:00;;;;;;;7.18;2.72;;;20.90;70.10;;;;;;5054663;28;20064;-77
2023/06/03 09:55:34;;;;;;;5.80;2.60;;;20.80;70.00;;;;;;5040428;28;20045;-77
2023/06/03 09:58:08;;;;;;;7.80;3.47;;;21.20;70.80;;;;;;5032294;28;20507;-76
2023/06/03 10:00:49;;;;;;;8.05;3.20;;;21.50;71.40;;;;;;5008316;28;21923;-76
2023/06/03 10:03:20;;;;;;;20.10;4.72;;;21.60;69.70;;;;;;5028008;28;20049;-77
2023/06/03 10:05:48;;;;;;;6.88;3.35;;;21.80;69.40;;;;;;5021101;28;20053;-76
2023/06/03 10:08:30;;;;;;;8.30;3.08;;;21.80;67.50;;;;;;5027659;28;20041;-76
2023/06/03 10:11:00;;;;;;;4.53;2.92;;;22.10;68.80;;;;;;5037978;28;20401;-76
2023/06/03 10:13:27;;;;;;;6.47;3.78;;;22.20;69.50;;;;;;5029711;28;20041;-76
2023/06/03 10:15:54;;;;;;;4.97;2.83;;;22.30;69.50;;;;;;5021118;28;20044;-76
2023/06/03 10:18:36;;;;;;;6.50;4.18;;;22.40;68.70;;;;;;5028153;28;20118;-77
2023/06/03 10:21:12;;;;;;;3.88;3.05;;;22.10;68.10;;;;;;5026209;28;20381;-76
2023/06/03 10:23:41;;;;;;;9.23;3.97;;;22.00;67.60;;;;;;5020293;28;20064;-76
2023/06/03 10:26:09;;;;;;;5.20;3.90;;;22.00;68.10;;;;;;5011788;28;20059;-77
2023/06/03 10:28:37;;;;;;;5.60;3.50;;;21.50;68.70;;;;;;5020742;28;20045;-76
2023/06/03 10:31:05;;;;;;;5.50;3.58;;;21.90;70.70;;;;;;5014315;28;20258;-76
2023/06/03 10:33:36;;;;;;;5.10;2.97;;;21.90;68.40;;;;;;5025969;28;20048;-76
2023/06/03 10:36:04;;;;;;;6.18;3.60;;;21.90;65.50;;;;;;5029517;28;20114;-77
2023/06/03 10:38:32;;;;;;;7.18;3.45;;;22.10;66.40;;;;;;5005468;28;20045;-76
2023/06/03 10:41:01;;;;;;;5.55;3.63;;;22.00;64.90;;;;;;5032504;28;20045;-76
2023/06/03 10:43:31;;;;;;;5.30;3.72;;;21.90;65.70;;;;;;5028678;28;20048;-76
2023/06/03 10:46:00;;;;;;;6.93;2.88;;;22.20;67.70;;;;;;5032661;28;20039;-76
2023/06/03 10:48:29;;;;;;;6.57;3.17;;;22.50;66.40;;;;;;5011442;28;20084;-76
2023/06/03 10:51:03;;;;;;;5.95;3.70;;;22.60;64.90;;;;;;5012865;28;20046;-76
2023/06/03 10:54:22;;;;;;;5.75;2.67;;;22.30;64.00;;;;;;5051261;28;20443;-75
2023/06/03 10:57:15;;;;;;;7.32;4.32;;;21.90;64.00;;;;;;5020344;28;20048;-76
2023/06/03 10:59:43;;;;;;;;;;;21.50;64.10;;;;;;5023119;28;20163;-76
2023/06/03 11:02:11;;;;;;;6.68;3.33;;;21.70;65.10;;;;;;5017591;28;22241;-76
2023/06/03 11:04:39;;;;;;;7.28;4.15;;;21.80;66.80;;;;;;5015487;28;20075;-76
2023/06/03 11:07:29;;;;;;;4.68;2.92;;;21.70;66.80;;;;;;5031938;28;22593;-76
2023/06/03 11:09:57;;;;;;;7.72;3.22;;;21.60;67.20;;;;;;5017015;28;20120;-76
2023/06/03 11:12:47;;;;;;;7.43;3.60;;;21.40;67.40;;;;;;5034584;28;20174;-76
2023/06/03 11:15:14;;;;;;;4.90;3.47;;;21.40;68.00;;;;;;5022867;28;20045;-76
2023/06/03 11:18:15;;;;;;;6.03;2.95;;;21.50;69.20;;;;;;5043407;28;22439;-76
2023/06/03 11:20:43;;;;;;;4.45;3.15;;;21.90;68.30;;;;;;5019882;28;20423;-75
2023/06/03 11:23:30;;;;;;;6.63;2.97;;;22.20;67.70;;;;;;5034653;28;20057;-76
2023/06/03 11:25:57;;;;;;;6.32;3.00;;;22.20;65.80;;;;;;5036563;28;20045;-76
2023/06/03 11:28:29;;;;;;;4.68;2.88;;;22.30;66.30;;;;;;5023794;28;20044;-77
2023/06/03 11:30:56;;;;;;;5.38;3.35;;;22.40;66.10;;;;;;5033508;28;23080;-76
2023/06/03 11:33:24;;;;;;;5.00;3.20;;;22.20;65.80;;;;;;5022175;28;22164;-76
2023/06/03 11:35:51;;;;;;;4.47;2.88;;;22.20;64.70;;;;;;5012170;28;20057;-76
2023/06/03 11:38:38;;;;;;;5.57;3.30;;;22.30;65.50;;;;;;5018521;28;20867;-76
2023/06/03 11:41:05;;;;;;;7.15;3.55;;;22.20;65.40;;;;;;5027770;28;20094;-76
2023/06/03 11:43:32;;;;;;;8.07;3.17;;;22.30;67.00;;;;;;5038261;28;20414;-76
2023/06/03 11:46:05;;;;;;;5.97;3.13;;;22.10;65.20;;;;;;5025452;28;20045;-76
2023/06/03 11:48:37;;;;;;;8.15;4.25;;;21.90;66.90;;;;;;5017552;28;20063;-76
2023/06/03 11:51:05;;;;;;;6.75;3.60;;;21.60;66.10;;;;;;5019289;28;20130;-77
2023/06/03 11:53:36;;;;;;;7.88;3.90;;;21.80;67.60;;;;;;5022625;28;20123;-76
2023/06/03 11:56:12;;;;;;;5.05;3.15;;;22.20;68.00;;;;;;5023910;28;20119;-75
2023/06/03 11:58:51;;;;;;;3.97;3.00;;;22.20;65.80;;;;;;5006981;28;20053;-75
2023/06/03 12:01:19;;;;;;;13.23;4.80;;;22.50;65.10;;;;;;5016650;28;20044;-75
2023/06/03 12:04:02;;;;;;;7.90;3.33;;;22.50;65.50;;;;;;5022307;28;20044;-76
2023/06/03 12:06:34;;;;;;;4.70;2.40;;;22.30;63.80;;;;;;5020442;28;20037;-75
2023/06/03 12:09:01;;;;;;;5.93;2.47;;;22.20;61.90;;;;;;5024872;28;20041;-75
2023/06/03 12:11:30;;;;;;;5.22;3.00;;;22.00;62.50;;;;;;5037912;28;20285;-76
2023/06/03 12:13:58;;;;;;;6.00;2.90;;;22.20;62.50;;;;;;5017337;28;20047;-76
2023/06/03 12:16:35;;;;;;;6.13;2.63;;;22.40;64.00;;;;;;5014188;28;20044;-75
2023/06/03 12:19:05;;;;;;;5.07;2.88;;;22.50;63.90;;;;;;5024648;28;20048;-76
2023/06/03 12:21:34;;;;;;;5.90;3.53;;;22.40;63.50;;;;;;5011679;28;20385;-76
2023/06/03 12:24:12;;;;;;;6.85;3.58;;;22.20;64.50;;;;;;5017527;28;20529;-76
2023/06/03 12:26:41;;;;;;;4.95;2.60;;;22.20;65.70;;;;;;5028027;28;20052;-74
2023/06/03 12:29:10;;;;;;;6.95;2.67;;;22.20;64.50;;;;;;5032983;28;20084;-75
2023/06/03 12:31:38;;;;;;;4.53;2.88;;;22.40;63.70;;;;;;5017632;28;22335;-76
2023/06/03 12:34:05;;;;;;;5.75;2.78;;;22.40;63.10;;;;;;5012189;28;20052;-77
2023/06/03 12:36:49;;;;;;;5.20;2.90;;;22.40;64.60;;;;;;5014278;28;20043;-77
2023/06/03 12:39:18;;;;;;;5.93;2.53;;;22.20;63.90;;;;;;5004308;28;20064;-77
2023/06/03 12:41:52;;;;;;;3.08;2.28;;;22.10;65.20;;;;;;5014525;28;20045;-76
2023/06/03 12:44:20;;;;;;;5.55;2.65;;;21.80;65.30;;;;;;5016571;28;22384;-76
2023/06/03 12:47:03;;;;;;;6.20;2.97;;;21.80;65.30;;;;;;4994209;28;20427;-78
2023/06/03 12:49:31;;;;;;;4.10;2.47;;;21.80;65.40;;;;;;5015311;28;20044;-76
2023/06/03 12:52:16;;;;;;;6.07;2.70;;;21.50;63.70;;;;;;5012019;28;22995;-77
2023/06/03 12:54:52;;;;;;;4.50;2.55;;;21.50;64.90;;;;;;5026973;28;20135;-76
2023/06/03 12:57:21;;;;;;;4.65;2.95;;;21.70;63.90;;;;;;5022844;28;20056;-76
2023/06/03 13:00:11;;;;;;;4.90;2.83;;;21.90;64.70;;;;;;5014185;28;20052;-76
2023/06/03 13:02:39;;;;;;;4.32;2.90;;;22.20;63.50;;;;;;5010820;28;20052;-76
2023/06/03 13:05:07;;;;;;;7.10;2.22;;;22.50;64.30;;;;;;5025010;28;20516;-77
2023/06/03 13:07:40;;;;;;;4.93;2.50;;;22.30;63.10;;;;;;5035519;28;20098;-77